Time;durP1;ratioP1;P1;durP2;ratioP2;P2;SDS_P1;SDS_P2;PMS_P1;PMS_P2;Temp;Humidity;BMP_temperature;BMP_pressure;BME280_temperature;BME280_humidity;BME280_pressure;Samples;Min_cycle;Max_cycle;Signal;HPM_P1;HPM_P2
2022/09/12 00:01:33;;;;;;;9.63;8.70;;;16.60;99.90;;;;;;5128956;28;20073;-79
2022/09/12 00:04:01;;;;;;;7.55;6.47;;;16.50;99.90;;;;;;5128978;28;20119;-79
2022/09/12 00:06:34;;;;;;;7.47;6.82;;;16.60;99.90;;;;;;5110741;28;20036;-79
2022/09/12 00:09:04;;;;;;;9.77;8.75;;;16.50;99.90;;;;;;5128840;28;20028;-79
2022/09/12 00:11:29;;;;;;;8.40;7.70;;;16.50;99.90;;;;;;5128606;28;20027;-79
2022/09/12 00:14:00;;;;;;;7.45;6.85;;;16.50;99.90;;;;;;5128905;27;20034;-79
2022/09/12 00:16:28;;;;;;;8.90;7.22;;;16.50;99.90;;;;;;5127653;28;20023;-79
2022/09/12 00:18:54;;;;;;;14.32;8.00;;;16.50;99.90;;;;;;5127288;28;20039;-79
2022/09/12 00:21:21;;;;;;;8.88;7.97;;;16.50;99.90;;;;;;5127175;28;20024;-79
2022/09/12 00:23:48;;;;;;;9.30;8.32;;;16.40;99.90;;;;;;5128162;28;20048;-79
2022/09/12 00:26:14;;;;;;;9.07;7.93;;;16.40;99.90;;;;;;5110171;28;20378;-79
2022/09/12 00:28:41;;;;;;;7.72;7.03;;;16.40;99.90;;;;;;5128433;28;20019;-79
2022/09/12 00:31:09;;;;;;;7.32;6.72;;;16.40;99.90;;;;;;5127335;28;20031;-79
2022/09/12 00:33:35;;;;;;;9.35;7.65;;;16.40;99.90;;;;;;5126978;28;20488;-79
2022/09/12 00:36:07;;;;;;;6.90;6.30;;;16.30;99.90;;;;;;5127062;28;20020;-79
2022/09/12 00:38:37;;;;;;;8.52;5.63;;;16.30;99.90;;;;;;5128154;28;20377;-79
2022/09/12 00:41:04;;;;;;;6.13;5.63;;;16.30;99.90;;;;;;5127029;28;20049;-79
2022/09/12 00:43:37;;;;;;;6.75;5.80;;;16.30;99.90;;;;;;5126828;28;20032;-79
2022/09/12 00:46:18;;;;;;;6.28;5.85;;;16.30;99.90;;;;;;5128294;28;20409;-79
2022/09/12 00:48:54;;;;;;;6.88;6.28;;;16.20;99.90;;;;;;5110105;28;20027;-79
2022/09/12 00:51:20;;;;;;;6.57;6.03;;;16.30;99.90;;;;;;5127940;28;20031;-79
2022/09/12 00:53:49;;;;;;;8.32;6.47;;;16.30;99.90;;;;;;5127810;28;20043;-79
2022/09/12 00:56:17;;;;;;;8.82;8.13;;;16.30;99.90;;;;;;5107494;28;20028;-79
2022/09/12 00:58:51;;;;;;;6.85;6.15;;;16.20;99.90;;;;;;5106381;28;20490;-79
2022/09/12 01:01:18;;;;;;;7.55;6.82;;;16.20;99.90;;;;;;5106236;28;20024;-79
2022/09/12 01:03:44;;;;;;;8.48;7.47;;;16.20;99.90;;;;;;5107336;28;20024;-79
2022/09/12 01:06:26;;;;;;;10.10;7.40;;;16.20;99.90;;;;;;5090170;28;20069;-79
2022/09/12 01:08:53;;;;;;;13.38;8.65;;;16.20;99.90;;;;;;5126406;28;20080;-79
2022/09/12 01:11:20;;;;;;;9.45;7.53;;;16.10;99.90;;;;;;5127635;28;20115;-79
2022/09/12 01:13:48;;;;;;;7.93;7.22;;;16.10;99.90;;;;;;5127661;28;20057;-79
2022/09/12 01:16:14;;;;;;;7.63;6.93;;;16.10;99.90;;;;;;5109360;28;20024;-79
2022/09/12 01:19:08;;;;;;;9.32;7.28;;;16.10;99.90;;;;;;5127349;28;20024;-79
2022/09/12 01:21:55;;;;;;;11.25;7.30;;;16.10;99.90;;;;;;5126224;28;20032;-79
2022/09/12 01:24:53;;;;;;;8.32;7.53;;;16.10;99.90;;;;;;5125911;28;20131;-79
2022/09/12 01:27:39;;;;;;;7.10;6.43;;;16.00;99.90;;;;;;5127395;28;20124;-79
2022/09/12 01:30:51;;;;;;;7.03;5.50;;;16.00;99.90;;;;;;5127410;28;20044;-79
2022/09/12 01:33:22;;;;;;;6.22;5.72;;;16.00;99.90;;;;;;5118490;28;20039;-79
2022/09/12 01:36:16;;;;;;;5.72;5.10;;;16.00;99.90;;;;;;5125874;28;20028;-79
2022/09/12 01:38:52;;;;;;;5.90;4.97;;;16.00;99.90;;;;;;5107866;28;20123;-79
2022/09/12 01:41:51;;;;;;;6.68;6.07;;;15.90;99.90;;;;;;5126011;28;20036;-79
2022/09/12 01:44:36;;;;;;;5.82;5.35;;;15.90;99.90;;;;;;5125858;28;20091;-79
2022/09/12 01:47:20;;;;;;;4.95;4.55;;;15.90;99.90;;;;;;5127107;28;20023;-79
2022/09/12 01:50:01;;;;;;;5.53;5.00;;;15.90;99.90;;;;;;5125580;28;20027;-79
2022/09/12 01:52:52;;;;;;;5.05;4.35;;;15.90;99.90;;;;;;5126810;28;20038;-79
2022/09/12 01:55:30;;;;;;;4.68;4.13;;;15.90;99.90;;;;;;5096497;28;20046;-79
2022/09/12 01:58:11;;;;;;;6.10;5.55;;;15.90;99.90;;;;;;5126774;28;20053;-79
2022/09/12 02:00:44;;;;;;;5.93;5.40;;;15.90;99.90;;;;;;5125606;28;20099;-79
2022/09/12 02:03:16;;;;;;;4.78;4.38;;;15.90;99.90;;;;;;5126853;28;20035;-79
2022/09/12 02:05:53;;;;;;;6.10;5.53;;;15.80;99.90;;;;;;5125645;28;20031;-79
2022/09/12 02:08:27;;;;;;;9.52;7.70;;;15.80;99.90;;;;;;5125168;28;20035;-79
2022/09/12 02:10:57;;;;;;;6.03;5.53;;;15.80;99.90;;;;;;5126463;28;20070;-80
2022/09/12 02:13:29;;;;;;;7.07;6.43;;;15.80;99.90;;;;;;5126475;28;20469;-79
2022/09/12 02:16:04;;;;;;;8.27;7.13;;;15.80;99.90;;;;;;5126657;28;20103;-79
2022/09/12 02:18:32;;;;;;;11.50;8.73;;;15.80;99.90;;;;;;5126720;28;20042;-79
2022/09/12 02:21:00;;;;;;;11.27;8.65;;;15.80;99.90;;;;;;5126387;28;20529;-80
2022/09/12 02:23:28;;;;;;;9.80;7.60;;;15.80;99.90;;;;;;5107762;28;20051;-79
2022/09/12 02:26:01;;;;;;;8.75;7.95;;;15.80;99.90;;;;;;5126637;28;20027;-79
2022/09/12 02:28:34;;;;;;;8.45;7.75;;;15.80;99.90;;;;;;5126689;28;20028;-79
2022/09/12 02:31:27;;;;;;;7.50;6.90;;;15.80;99.90;;;;;;5125235;28;20076;-79
2022/09/12 02:34:02;;;;;;;8.88;8.00;;;15.80;99.90;;;;;;5123524;28;20500;-79
2022/09/12 02:36:51;;;;;;;9.75;8.85;;;15.70;99.90;;;;;;5126462;28;20031;-79
2022/09/12 02:39:19;;;;;;;11.32;9.77;;;15.70;99.90;;;;;;5126256;28;20032;-79
2022/09/12 02:41:58;;;;;;;7.53;6.88;;;15.70;99.90;;;;;;5125010;28;20035;-79
2022/09/12 02:44:25;;;;;;;10.90;9.80;;;15.70;99.90;;;;;;5125122;28;20044;-79
2022/09/12 02:47:14;;;;;;;8.65;7.80;;;15.70;99.90;;;;;;5108540;28;20035;-79
2022/09/12 02:49:40;;;;;;;7.63;6.82;;;15.70;99.90;;;;;;5125817;28;20396;-79
2022/09/12 02:52:06;;;;;;;8.50;7.68;;;15.70;99.90;;;;;;5112088;28;20016;-79
2022/09/12 02:54:31;;;;;;;6.90;6.25;;;15.70;99.90;;;;;;5128602;28;20031;-79
2022/09/12 02:56:57;;;;;;;8.30;7.50;;;15.60;99.90;;;;;;5123583;28;20028;-79
2022/09/12 02:59:24;;;;;;;7.90;7.22;;;15.70;99.90;;;;;;5108636;28;20110;-79
2022/09/12 03:02:04;;;;;;;8.23;6.85;;;15.60;99.90;;;;;;5108580;28;20032;-79
2022/09/12 03:04:54;;;;;;;8.30;6.65;;;15.70;99.90;;;;;;5108483;28;20032;-79
2022/09/12 03:07:57;;;;;;;7.43;5.60;;;15.60;99.90;;;;;;5109514;28;20367;-79
2022/09/12 03:10:58;;;;;;;8.23;7.43;;;15.60;99.90;;;;;;5109571;28;20028;-79
2022/09/12 03:13:45;;;;;;;7.40;6.70;;;15.60;99.90;;;;;;5107483;28;20036;-79
2022/09/12 03:16:30;;;;;;;6.93;6.22;;;15.60;99.90;;;;;;5109561;28;20047;-79
2022/09/12 03:19:05;;;;;;;7.68;6.95;;;15.60;99.90;;;;;;5108241;28;20091;-79
2022/09/12 03:21:49;;;;;;;9.63;6.60;;;15.60;99.90;;;;;;5108244;28;20024;-79
2022/09/12 03:24:40;;;;;;;8.32;7.57;;;15.60;99.90;;;;;;5124993;28;20054;-79
2022/09/12 03:27:12;;;;;;;10.40;7.68;;;15.60;99.90;;;;;;5128655;28;20028;-79
2022/09/12 03:29:39;;;;;;;11.93;9.32;;;15.60;99.90;;;;;;5129807;28;20046;-79
2022/09/12 03:32:06;;;;;;;7.55;6.72;;;15.50;99.90;;;;;;5111359;28;20497;-79
2022/09/12 03:34:32;;;;;;;7.28;6.65;;;15.50;99.90;;;;;;5129594;27;20038;-79
2022/09/12 03:36:58;;;;;;;6.70;6.00;;;15.50;99.90;;;;;;5129523;28;20051;-79
2022/09/12 03:39:25;;;;;;;8.35;7.45;;;15.50;99.90;;;;;;5128076;28;20016;-78
2022/09/12 03:41:52;;;;;;;10.35;8.02;;;15.50;99.90;;;;;;5111319;28;20032;-79
2022/09/12 03:44:18;;;;;;;7.72;7.00;;;15.50;99.90;;;;;;5129314;27;20028;-79
2022/09/12 03:46:44;;;;;;;8.10;7.32;;;15.50;99.90;;;;;;5128084;28;20474;-79
2022/09/12 03:49:11;;;;;;;8.27;7.47;;;15.50;99.90;;;;;;5129527;28;20042;-79
2022/09/12 03:51:37;;;;;;;8.85;6.75;;;15.50;99.90;;;;;;5127963;28;20084;-79
2022/09/12 03:54:04;;;;;;;7.72;6.95;;;15.50;99.90;;;;;;5127343;28;20038;-79
2022/09/12 03:56:30;;;;;;;8.35;6.43;;;15.50;99.90;;;;;;5129179;28;20500;-79
2022/09/12 03:58:56;;;;;;;8.98;7.90;;;15.40;99.90;;;;;;5129187;27;20034;-79
2022/09/12 04:01:22;;;;;;;8.38;7.55;;;15.40;99.90;;;;;;5110127;28;20407;-79
2022/09/12 04:03:51;;;;;;;8.65;7.85;;;15.40;99.90;;;;;;5129259;28;20028;-79
2022/09/12 04:06:19;;;;;;;8.73;7.95;;;15.40;99.90;;;;;;5129088;27;20027;-79
2022/09/12 04:08:50;;;;;;;9.40;8.63;;;15.40;99.90;;;;;;5128662;28;20024;-79
2022/09/12 04:11:17;;;;;;;8.65;7.85;;;15.40;99.90;;;;;;5127814;28;20032;-79
2022/09/12 04:13:44;;;;;;;10.30;9.30;;;15.40;99.90;;;;;;5128705;28;20080;-79
2022/09/12 04:16:12;;;;;;;12.57;9.88;;;15.40;99.90;;;;;;5128837;28;20023;-79
2022/09/12 04:18:38;;;;;;;9.93;8.93;;;15.40;99.90;;;;;;5110876;28;20035;-78
2022/09/12 04:21:10;;;;;;;9.90;8.88;;;15.40;99.90;;;;;;5128567;28;20028;-79
2022/09/12 04:23:35;;;;;;;12.15;8.65;;;15.40;99.90;;;;;;5128175;28;20047;-78
2022/09/12 04:26:05;;;;;;;11.27;10.18;;;15.40;99.90;;;;;;5128831;28;20035;-79
2022/09/12 04:28:32;;;;;;;10.68;9.77;;;15.40;99.90;;;;;;5127470;28;20040;-78
2022/09/12 04:31:06;;;;;;;11.07;9.98;;;15.40;99.90;;;;;;5127190;28;20038;-79
2022/09/12 04:33:33;;;;;;;9.10;8.15;;;15.40;99.90;;;;;;5128342;28;20053;-79
2022/09/12 04:36:07;;;;;;;9.57;8.68;;;15.40;99.90;;;;;;5127206;28;20015;-79
2022/09/12 04:38:34;;;;;;;12.65;9.95;;;15.40;99.90;;;;;;5130569;27;20069;-78
2022/09/12 04:41:00;;;;;;;9.10;8.20;;;15.40;99.90;;;;;;5123523;28;20111;-79
2022/09/12 04:43:25;;;;;;;11.15;10.02;;;15.40;99.90;;;;;;5108026;28;20036;-79
2022/09/12 04:45:51;;;;;;;10.85;9.88;;;15.30;99.90;;;;;;5107716;28;20031;-79
2022/09/12 04:48:17;;;;;;;11.45;9.70;;;15.40;99.90;;;;;;5106440;28;20028;-79
2022/09/12 04:50:42;;;;;;;11.82;9.32;;;15.40;99.90;;;;;;5107732;28;20039;-79
2022/09/12 04:53:08;;;;;;;12.23;10.18;;;15.30;99.90;;;;;;5115650;28;20080;-79
2022/09/12 04:55:34;;;;;;;11.48;10.27;;;15.40;99.90;;;;;;5122261;27;20027;-79
2022/09/12 04:58:01;;;;;;;9.35;8.45;;;15.30;99.90;;;;;;5125964;28;20028;-79
2022/09/12 05:00:27;;;;;;;9.90;8.85;;;15.30;99.90;;;;;;5106923;28;20035;-79
2022/09/12 05:02:53;;;;;;;9.60;8.70;;;15.30;99.90;;;;;;5122779;27;20050;-79
2022/09/12 05:05:19;;;;;;;10.85;9.68;;;15.30;99.90;;;;;;5127771;28;20453;-79
2022/09/12 05:07:45;;;;;;;10.43;9.30;;;15.30;99.90;;;;;;5126351;28;20032;-79
2022/09/12 05:10:11;;;;;;;10.40;9.32;;;15.30;99.90;;;;;;5094566;28;20028;-79
2022/09/12 05:12:37;;;;;;;13.05;9.55;;;15.30;99.90;;;;;;5126069;28;20023;-79
2022/09/12 05:15:03;;;;;;;8.77;7.85;;;15.30;99.90;;;;;;5110540;27;20087;-79
2022/09/12 05:17:29;;;;;;;11.55;10.40;;;15.30;99.90;;;;;;5119968;28;20028;-79
2022/09/12 05:19:55;;;;;;;10.48;9.27;;;15.20;99.90;;;;;;5126425;28;20393;-79
2022/09/12 05:22:21;;;;;;;10.45;9.50;;;15.20;99.90;;;;;;5114275;28;20016;-79
2022/09/12 05:24:47;;;;;;;10.05;8.98;;;15.20;99.90;;;;;;5127157;28;20038;-79
2022/09/12 05:27:13;;;;;;;10.32;9.32;;;15.20;99.90;;;;;;5111547;28;20036;-79
2022/09/12 05:29:39;;;;;;;10.45;9.55;;;15.10;99.90;;;;;;5125829;28;20385;-79
2022/09/12 05:32:05;;;;;;;8.95;8.10;;;15.10;99.90;;;;;;5124690;28;20031;-80
2022/09/12 05:34:31;;;;;;;11.00;10.05;;;15.10;99.90;;;;;;5109122;28;20027;-79
2022/09/12 05:36:57;;;;;;;10.82;9.77;;;15.00;99.90;;;;;;5108343;28;20944;-79
2022/09/12 05:39:23;;;;;;;11.88;10.60;;;15.10;99.90;;;;;;5125417;28;20027;-79
2022/09/12 05:41:49;;;;;;;9.75;8.27;;;15.10;99.90;;;;;;5126996;28;20122;-79
2022/09/12 05:44:16;;;;;;;11.85;10.43;;;15.10;99.90;;;;;;5122424;28;20060;-79
2022/09/12 05:46:50;;;;;;;11.45;10.32;;;15.10;99.90;;;;;;5109885;27;20024;-79
2022/09/12 05:49:15;;;;;;;11.30;10.20;;;15.10;99.90;;;;;;5116790;27;20542;-79
2022/09/12 05:51:44;;;;;;;10.10;9.20;;;15.20;99.90;;;;;;5105155;28;20032;-79
2022/09/12 05:54:12;;;;;;;11.30;10.05;;;15.10;99.90;;;;;;5114529;28;20032;-79
2022/09/12 05:56:41;;;;;;;11.82;10.63;;;15.10;99.90;;;;;;5115758;28;20030;-79
2022/09/12 05:59:11;;;;;;;10.23;9.30;;;15.10;99.90;;;;;;5110636;28;20089;-79
2022/09/12 06:01:38;;;;;;;13.00;11.30;;;15.10;99.90;;;;;;5095264;28;20022;-79
2022/09/12 06:04:05;;;;;;;13.73;12.38;;;15.20;99.90;;;;;;5125102;28;20100;-79
2022/09/12 06:06:34;;;;;;;13.07;11.63;;;15.20;99.90;;;;;;5125140;27;20032;-79
2022/09/12 06:09:01;;;;;;;11.25;10.15;;;15.10;99.90;;;;;;5126633;28;20035;-80
2022/09/12 06:11:30;;;;;;;11.88;10.70;;;15.10;99.90;;;;;;5108408;28;20389;-80
2022/09/12 06:13:57;;;;;;;11.32;10.13;;;15.20;99.90;;;;;;5126823;28;20446;-80
2022/09/12 06:16:32;;;;;;;11.05;9.95;;;15.10;99.90;;;;;;5125280;28;20019;-80
2022/09/12 06:19:06;;;;;;;11.13;10.13;;;15.30;99.90;;;;;;5126138;28;20020;-80
2022/09/12 06:21:37;;;;;;;12.85;11.65;;;15.20;99.90;;;;;;5123372;28;20020;-80
2022/09/12 06:24:03;;;;;;;13.25;11.98;;;15.10;99.90;;;;;;5124510;28;20039;-80
2022/09/12 06:26:29;;;;;;;12.95;11.65;;;15.20;99.90;;;;;;5124467;28;20046;-80
2022/09/12 06:28:58;;;;;;;13.38;12.02;;;15.10;99.90;;;;;;5126065;28;20047;-80
2022/09/12 06:31:33;;;;;;;14.88;12.23;;;15.10;99.90;;;;;;5126055;28;20039;-80
2022/09/12 06:34:04;;;;;;;11.10;10.05;;;15.10;99.90;;;;;;5124544;28;20066;-80
2022/09/12 06:36:33;;;;;;;11.48;10.13;;;15.20;99.90;;;;;;5125001;28;20035;-80
2022/09/12 06:39:02;;;;;;;11.57;10.45;;;15.20;99.90;;;;;;5125623;28;20024;-80
2022/09/12 06:41:30;;;;;;;10.65;9.75;;;15.20;99.90;;;;;;5125299;28;20027;-80
2022/09/12 06:43:56;;;;;;;13.43;11.80;;;15.20;99.90;;;;;;5124197;28;20035;-80
2022/09/12 06:46:22;;;;;;;12.52;10.52;;;15.20;99.90;;;;;;5098842;28;20028;-80
2022/09/12 06:48:49;;;;;;;11.60;10.32;;;15.20;99.90;;;;;;5111356;28;20036;-80
2022/09/12 06:51:17;;;;;;;12.15;10.43;;;15.20;99.90;;;;;;5113411;28;20032;-80
2022/09/12 06:53:44;;;;;;;13.48;10.85;;;15.30;99.90;;;;;;5104107;28;20024;-80
2022/09/12 06:56:12;;;;;;;13.63;11.35;;;15.30;99.90;;;;;;5104983;28;20028;-80
2022/09/12 06:58:39;;;;;;;14.63;10.15;;;15.30;99.90;;;;;;5108888;28;20040;-80
2022/09/12 07:01:10;;;;;;;11.35;10.15;;;15.30;99.90;;;;;;5107214;28;20031;-80
2022/09/12 07:03:37;;;;;;;13.60;11.30;;;15.30;99.90;;;;;;5127889;28;20032;-80
2022/09/12 07:06:10;;;;;;;19.77;11.40;;;15.30;99.90;;;;;;5127258;28;20023;-81
2022/09/12 07:08:37;;;;;;;13.70;12.32;;;15.30;99.90;;;;;;5144499;28;20035;-79
2022/09/12 07:11:11;;;;;;;13.15;11.55;;;15.30;99.90;;;;;;5146772;27;20466;-79
2022/09/12 07:13:41;;;;;;;15.02;10.85;;;15.30;99.90;;;;;;5131936;28;20038;-79
2022/09/12 07:16:09;;;;;;;12.75;10.70;;;15.30;99.90;;;;;;5111691;28;20726;-79
2022/09/12 07:18:38;;;;;;;13.05;10.95;;;15.30;99.90;;;;;;5122537;28;20028;-79
2022/09/12 07:21:07;;;;;;;15.70;12.68;;;15.30;99.90;;;;;;5111069;28;20024;-79
2022/09/12 07:23:33;;;;;;;15.50;12.35;;;15.30;99.90;;;;;;5126637;28;20044;-79
2022/09/12 07:26:00;;;;;;;12.57;11.38;;;15.40;99.90;;;;;;5125969;28;20053;-79
2022/09/12 07:28:27;;;;;;;14.10;11.32;;;15.40;99.90;;;;;;5125653;28;20029;-79
2022/09/12 07:30:53;;;;;;;11.57;10.38;;;15.40;99.90;;;;;;5124626;28;20112;-79
2022/09/12 07:33:21;;;;;;;13.48;12.27;;;15.40;99.90;;;;;;5125757;28;20028;-79
2022/09/12 07:35:47;;;;;;;13.15;11.95;;;15.50;99.90;;;;;;5125867;28;20034;-79
2022/09/12 07:38:13;;;;;;;16.80;12.30;;;15.50;99.90;;;;;;5128847;28;20114;-79
2022/09/12 07:40:39;;;;;;;20.42;12.73;;;15.50;99.90;;;;;;5129628;27;20027;-79
2022/09/12 07:43:05;;;;;;;12.32;10.57;;;15.60;99.90;;;;;;5143217;27;20119;-79
2022/09/12 07:45:31;;;;;;;12.80;11.50;;;15.50;99.90;;;;;;5150068;27;20023;-80
2022/09/12 07:47:56;;;;;;;15.45;11.07;;;15.60;99.90;;;;;;5150359;27;20029;-84
2022/09/12 07:50:22;;;;;;;13.02;11.38;;;15.60;99.90;;;;;;5114845;27;20037;-84
2022/09/12 07:52:49;;;;;;;12.75;11.63;;;15.60;99.90;;;;;;5149855;27;20067;-84
2022/09/12 07:55:15;;;;;;;10.57;9.52;;;15.70;99.90;;;;;;5149805;27;20019;-85
2022/09/12 07:57:41;;;;;;;15.15;12.40;;;15.70;99.90;;;;;;5140670;27;20062;-86
2022/09/12 08:00:08;;;;;;;13.60;12.00;;;15.70;99.90;;;;;;5130549;27;20032;-85
2022/09/12 08:02:38;;;;;;;18.95;14.55;;;15.70;99.90;;;;;;5127926;27;20423;-85
2022/09/12 08:05:04;;;;;;;14.30;11.93;;;15.80;99.90;;;;;;5145125;27;20035;-85
2022/09/12 08:07:32;;;;;;;12.02;10.25;;;15.80;99.90;;;;;;5129020;28;20038;-86
2022/09/12 08:10:01;;;;;;;11.65;10.27;;;15.80;99.90;;;;;;5126699;28;20020;-86
2022/09/12 08:12:28;;;;;;;13.80;10.75;;;15.90;99.90;;;;;;5118781;27;20015;-85
2022/09/12 08:14:54;;;;;;;10.48;9.45;;;15.90;99.90;;;;;;5141797;27;20046;-86
2022/09/12 08:17:20;;;;;;;10.23;9.23;;;15.90;99.90;;;;;;5130783;27;20043;-85
2022/09/12 08:19:47;;;;;;;14.10;12.40;;;16.00;99.90;;;;;;5111160;27;20031;-86
2022/09/12 08:22:12;;;;;;;13.27;10.52;;;16.00;99.90;;;;;;5110856;28;20093;-85
2022/09/12 08:24:39;;;;;;;20.08;10.40;;;16.10;99.90;;;;;;5127188;28;20043;-86
2022/09/12 08:27:06;;;;;;;11.93;10.63;;;16.10;99.90;;;;;;5126826;28;20043;-86
2022/09/12 08:29:31;;;;;;;9.27;8.38;;;16.20;99.90;;;;;;5127421;28;20023;-85
2022/09/12 08:31:57;;;;;;;10.32;8.88;;;16.20;99.90;;;;;;5128527;28;20035;-85
2022/09/12 08:34:23;;;;;;;9.60;8.52;;;16.30;99.90;;;;;;5109249;28;20022;-83
2022/09/12 08:36:50;;;;;;;9.90;9.00;;;16.30;99.90;;;;;;5138398;27;20076;-83
2022/09/12 08:39:16;;;;;;;11.63;10.43;;;16.40;99.90;;;;;;5130466;27;20461;-83
2022/09/12 08:41:47;;;;;;;11.23;8.95;;;16.40;99.90;;;;;;5130631;27;20060;-83
2022/09/12 08:44:31;;;;;;;9.15;8.43;;;16.50;99.90;;;;;;5147652;27;20038;-83
2022/09/12 08:47:16;;;;;;;9.75;8.73;;;16.50;99.90;;;;;;5130700;27;20031;-83
2022/09/12 08:50:04;;;;;;;11.82;8.93;;;16.60;99.90;;;;;;5136138;27;20051;-83
2022/09/12 08:53:12;;;;;;;10.27;9.25;;;16.60;99.90;;;;;;5128079;28;20027;-83
2022/09/12 08:55:52;;;;;;;11.55;10.38;;;16.70;99.90;;;;;;5125418;28;20054;-83
2022/09/12 08:58:21;;;;;;;14.07;10.27;;;16.80;99.90;;;;;;5128016;28;20538;-83
2022/09/12 09:01:25;;;;;;;13.32;10.35;;;16.90;99.90;;;;;;5126977;27;20038;-84
2022/09/12 09:04:19;;;;;;;17.80;11.30;;;17.00;99.90;;;;;;5113063;28;20028;-83
2022/09/12 09:07:09;;;;;;;16.83;10.50;;;17.00;99.90;;;;;;5124110;28;20024;-83
2022/09/12 09:09:55;;;;;;;11.88;10.63;;;17.10;99.90;;;;;;5141298;27;20031;-84
2022/09/12 09:12:55;;;;;;;13.68;11.25;;;17.10;99.90;;;;;;5147128;27;20044;-83
2022/09/12 09:15:39;;;;;;;12.27;11.10;;;17.20;99.90;;;;;;5129774;27;20098;-84
2022/09/12 09:18:16;;;;;;;12.63;10.45;;;17.30;99.90;;;;;;5105871;28;20070;-84
2022/09/12 09:20:56;;;;;;;14.00;11.60;;;17.30;99.90;;;;;;5127038;27;20040;-83
2022/09/12 09:23:29;;;;;;;;;;;17.40;99.90;;;;;;5127860;28;20054;-83
2022/09/12 09:25:55;;;;;;;10.43;9.32;;;17.50;99.90;;;;;;5127462;28;19908;-84
2022/09/12 09:28:36;;;;;;;13.32;10.73;;;17.60;99.90;;;;;;5127551;28;20027;-84
2022/09/12 09:31:02;;;;;;;10.23;9.23;;;17.70;99.90;;;;;;5126453;28;20024;-84
2022/09/12 09:33:33;;;;;;;8.73;7.95;;;17.70;99.90;;;;;;5125428;28;20416;-83
2022/09/12 09:36:02;;;;;;;11.05;10.02;;;17.80;99.90;;;;;;5124534;28;20381;-84
2022/09/12 09:38:50;;;;;;;10.82;9.70;;;17.90;99.90;;;;;;5127369;28;20016;-84
2022/09/12 09:41:36;;;;;;;9.95;8.93;;;18.00;99.90;;;;;;5127516;28;20454;-84
2022/09/12 09:44:02;;;;;;;8.50;7.63;;;18.00;99.90;;;;;;5108972;28;20031;-84
2022/09/12 09:46:28;;;;;;;8.27;7.47;;;18.10;99.90;;;;;;5126437;28;20061;-84
2022/09/12 09:48:57;;;;;;;8.75;7.95;;;18.20;99.90;;;;;;5127014;28;20031;-84
2022/09/12 09:51:31;;;;;;;8.93;8.05;;;18.20;99.90;;;;;;5125546;28;20032;-83
2022/09/12 09:54:11;;;;;;;7.72;7.03;;;18.30;99.90;;;;;;5108790;28;20031;-84
2022/09/12 09:56:41;;;;;;;13.32;7.95;;;18.40;99.90;;;;;;5125726;28;20032;-84
2022/09/12 09:59:11;;;;;;;7.70;6.97;;;18.50;99.90;;;;;;5126547;28;20034;-84
2022/09/12 10:01:42;;;;;;;;;;;18.50;99.90;;;;;;5108806;28;20020;-84
2022/09/12 10:04:19;;;;;;;9.40;6.75;;;18.70;99.90;;;;;;5126928;28;20305;-84
2022/09/12 10:06:45;;;;;;;6.55;6.05;;;18.70;99.90;;;;;;5101612;28;20039;-83
2022/09/12 10:09:14;;;;;;;6.28;5.75;;;18.80;99.90;;;;;;5106735;27;20224;-84
2022/09/12 10:11:40;;;;;;;6.57;5.97;;;18.90;99.90;;;;;;5125212;27;20035;-85
2022/09/12 10:14:25;;;;;;;7.57;6.88;;;19.00;99.90;;;;;;5124371;28;20023;-86
2022/09/12 10:16:52;;;;;;;6.05;5.63;;;19.10;99.90;;;;;;5096944;28;20119;-85
2022/09/12 10:19:31;;;;;;;6.50;5.68;;;19.10;99.90;;;;;;5108006;28;20091;-85
2022/09/12 10:21:59;;;;;;;8.63;6.45;;;19.20;99.90;;;;;;5124955;28;20027;-85
2022/09/12 10:24:42;;;;;;;6.20;5.68;;;19.30;99.90;;;;;;5110468;28;20051;-86
2022/09/12 10:27:11;;;;;;;5.68;5.20;;;19.40;99.90;;;;;;5125012;28;20024;-86
2022/09/12 10:30:16;;;;;;;11.32;5.95;;;19.40;99.90;;;;;;5109030;28;20025;-85
2022/09/12 10:32:45;;;;;;;4.90;4.50;;;19.60;99.90;;;;;;5105120;28;20050;-85
2022/09/12 10:35:24;;;;;;;5.53;5.03;;;19.60;99.90;;;;;;5124847;28;20054;-85
2022/09/12 10:37:50;;;;;;;6.68;5.30;;;19.70;99.90;;;;;;5108254;28;20020;-87
2022/09/12 10:40:23;;;;;;;6.25;4.72;;;19.80;99.90;;;;;;5124174;28;20032;-86
2022/09/12 10:42:55;;;;;;;4.72;4.15;;;19.90;99.90;;;;;;5106573;28;20611;-86
2022/09/12 10:45:36;;;;;;;4.90;4.00;;;20.00;99.90;;;;;;5124526;28;20028;-86
2022/09/12 10:48:23;;;;;;;6.53;4.95;;;20.10;99.90;;;;;;5123061;28;20515;-87
2022/09/12 10:50:48;;;;;;;9.55;4.70;;;20.20;99.90;;;;;;5107745;28;20048;-87
2022/09/12 10:53:31;;;;;;;3.92;3.63;;;20.30;99.90;;;;;;5124931;28;20027;-86
2022/09/12 10:56:05;;;;;;;5.00;3.85;;;20.30;99.90;;;;;;5107296;28;20027;-86
2022/09/12 10:59:00;;;;;;;4.53;4.13;;;20.40;99.90;;;;;;5124675;28;20023;-86
2022/09/12 11:01:29;;;;;;;5.63;3.75;;;20.40;99.90;;;;;;5126259;28;20482;-86
2022/09/12 11:04:19;;;;;;;3.85;3.50;;;20.50;99.90;;;;;;5107509;28;20024;-86
2022/09/12 11:07:07;;;;;;;2.65;2.45;;;20.60;99.90;;;;;;5107805;28;20039;-87
2022/09/12 11:09:46;;;;;;;2.70;2.50;;;20.70;99.90;;;;;;5124835;28;20381;-86
2022/09/12 11:12:47;;;;;;;3.55;3.17;;;20.80;99.90;;;;;;5126076;28;20028;-87
2022/09/12 11:15:28;;;;;;;2.95;2.75;;;20.90;99.90;;;;;;5130023;28;20031;-87
2022/09/12 11:18:19;;;;;;;3.03;2.75;;;20.90;99.90;;;;;;5111673;28;20504;-87
2022/09/12 11:20:51;;;;;;;2.80;2.60;;;20.90;99.90;;;;;;5128612;28;20020;-87
2022/09/12 11:23:19;;;;;;;8.52;3.83;;;20.90;99.90;;;;;;5128532;28;20054;-87
2022/09/12 11:25:59;;;;;;;5.13;3.28;;;20.90;99.90;;;;;;5111225;28;20059;-86
2022/09/12 11:28:48;;;;;;;4.53;2.95;;;20.80;99.90;;;;;;5128606;28;20027;-87
2022/09/12 11:31:27;;;;;;;3.42;2.88;;;20.90;99.90;;;;;;5119222;27;20103;-87
2022/09/12 11:33:56;;;;;;;2.87;2.67;;;20.90;99.90;;;;;;5129884;28;20036;-87
2022/09/12 11:37:01;;;;;;;2.75;2.38;;;21.00;99.90;;;;;;5127750;28;20031;-86
2022/09/12 11:39:44;;;;;;;3.30;2.75;;;21.10;99.90;;;;;;5110795;28;20032;-87
2022/09/12 11:42:19;;;;;;;3.00;2.80;;;21.10;99.90;;;;;;5107713;28;20027;-87
2022/09/12 11:44:50;;;;;;;2.90;2.70;;;21.20;99.90;;;;;;5124740;28;20032;-87
2022/09/12 11:47:17;;;;;;;2.42;2.22;;;21.20;99.90;;;;;;5124921;28;20047;-87
2022/09/12 11:49:48;;;;;;;3.20;3.00;;;21.30;99.90;;;;;;5107594;28;20464;-87
2022/09/12 11:52:22;;;;;;;2.75;2.55;;;21.30;99.90;;;;;;5125495;28;20028;-87
2022/09/12 11:54:56;;;;;;;2.35;2.15;;;21.40;99.90;;;;;;5124715;28;20032;-87
2022/09/12 11:57:34;;;;;;;1.90;1.80;;;21.40;99.90;;;;;;5128064;28;20045;-88
2022/09/12 12:00:14;;;;;;;2.50;2.33;;;21.40;99.90;;;;;;5111031;28;20099;-87
2022/09/12 12:02:42;;;;;;;;;;;21.50;99.90;;;;;;5127822;28;20077;-87
2022/09/12 12:05:34;;;;;;;2.47;2.20;;;21.50;99.90;;;;;;5127475;28;19910;-88
2022/09/12 12:08:03;;;;;;;4.53;2.53;;;21.40;99.90;;;;;;5127803;28;20032;-88
2022/09/12 12:10:59;;;;;;;5.05;2.70;;;21.40;99.90;;;;;;5127269;28;20023;-90
2022/09/12 12:13:32;;;;;;;3.63;2.90;;;21.40;99.90;;;;;;5127314;28;20107;-87
2022/09/12 12:16:14;;;;;;;12.95;2.83;;;21.50;99.90;;;;;;5127758;28;20053;-86
2022/09/12 12:18:42;;;;;;;3.33;2.88;;;21.50;99.90;;;;;;5127617;28;20023;-87
2022/09/12 12:21:33;;;;;;;10.65;2.92;;;21.40;99.90;;;;;;5127459;28;20031;-87
2022/09/12 12:24:08;;;;;;;2.60;2.40;;;21.50;99.90;;;;;;5126076;28;20059;-87
2022/09/12 12:26:56;;;;;;;3.20;2.90;;;21.50;99.90;;;;;;5107549;28;20039;-86
2022/09/12 12:29:22;;;;;;;4.95;3.40;;;21.50;99.90;;;;;;5130177;27;20496;-87
2022/09/12 12:32:02;;;;;;;3.97;2.25;;;21.50;99.90;;;;;;5130166;27;20104;-85
2022/09/12 12:34:40;;;;;;;2.22;2.03;;;21.50;99.90;;;;;;5109681;28;20024;-86
2022/09/12 12:37:18;;;;;;;1.92;1.83;;;21.50;99.90;;;;;;5129752;27;20061;-86
2022/09/12 12:39:46;;;;;;;3.47;2.03;;;21.60;99.90;;;;;;5137480;27;20054;-86
2022/09/12 12:42:31;;;;;;;2.35;2.15;;;21.60;99.90;;;;;;5126706;28;20023;-85
2022/09/12 12:44:57;;;;;;;2.53;2.33;;;21.60;99.90;;;;;;5126453;28;20035;-86
2022/09/12 12:47:35;;;;;;;2.92;2.63;;;21.60;99.90;;;;;;5108910;28;20031;-85
2022/09/12 12:50:11;;;;;;;3.00;2.80;;;21.70;99.90;;;;;;5109372;28;20023;-86
2022/09/12 12:52:57;;;;;;;2.90;2.22;;;21.80;99.90;;;;;;5109956;28;20111;-86
2022/09/12 12:55:25;;;;;;;2.30;2.10;;;21.80;99.90;;;;;;5126511;28;20023;-87
2022/09/12 12:57:59;;;;;;;1.95;1.85;;;21.80;99.90;;;;;;5126683;28;20019;-86
2022/09/12 13:00:26;;;;;;;2.45;2.22;;;21.80;99.90;;;;;;5108590;28;20023;-86
2022/09/12 13:03:04;;;;;;;4.75;2.53;;;21.80;99.90;;;;;;5126816;28;20023;-86
2022/09/12 13:05:40;;;;;;;2.75;2.58;;;21.80;99.90;;;;;;5127403;28;20045;-86
2022/09/12 13:08:27;;;;;;;2.22;2.05;;;21.80;99.90;;;;;;5133079;27;20020;-86
2022/09/12 13:11:09;;;;;;;4.25;2.92;;;21.90;99.90;;;;;;5125697;28;20032;-86